This is the latest recevied weather packets stored in our database for station/object WB8ZGM-13. If no packets are shown the sender has not sent any weather packets the latest 10 day(s).
| Time | Temp. | Humidity | Pressure | Rain* | Wind** | Luminosity | Snow |
|---|---|---|---|---|---|---|---|
| 1777856745 | 15.56° C | 59% | 997.8 hPa | 0 mm | - | - | - |
| 1777855815 | 16.67° C | 54% | 997.5 hPa | 0 mm | - | - | - |
| 1777854885 | 17.78° C | 50% | 997.5 hPa | 0 mm | - | - | - |
| 1777853955 | 19.44° C | 46% | 997.6 hPa | 0 mm | - | - | - |
| 1777853025 | 20.56° C | 42% | 998 hPa | 0 mm | - | - | - |
| 1777852125 | 21.67° C | 40% | 998.1 hPa | 0 mm | - | - | - |
| 1777851195 | 22.78° C | 39% | 998.1 hPa | 0 mm | - | - | - |
| 1777850294 | 22.78° C | 38% | 998 hPa | 0 mm | - | - | - |
| 1777849365 | 22.78° C | 38% | 998.3 hPa | 0 mm | - | - | - |
| 1777848464 | 23.33° C | 37% | 998.5 hPa | 0 mm | - | - | - |
| 1777847564 | 22.22° C | 39% | 998.7 hPa | 0 mm | - | - | - |
| 1777846634 | 22.22° C | 38% | 998.9 hPa | 0 mm | - | - | - |
| 1777845704 | 21.67° C | 37% | 999 hPa | 0 mm | - | - | - |
| 1777844774 | 21.67° C | 39% | 999.1 hPa | 0 mm | - | - | - |
| 1777843874 | 21.67° C | 38% | 999.4 hPa | 0 mm | - | - | - |
| 1777842944 | 21.67° C | 37% | 999.6 hPa | 0 mm | - | - | - |
| 1777842014 | 21.67° C | 37% | 999.8 hPa | 0 mm | - | - | - |
| 1777841084 | 22.22° C | 39% | 1000 hPa | 0 mm | - | - | - |
| 1777840184 | 21.67° C | 36% | 1000.2 hPa | 0 mm | - | - | - |
| 1777839284 | 22.78° C | 35% | 1000.8 hPa | 0 mm | - | - | - |
| 1777838384 | 21.67° C | 37% | 1000.9 hPa | 0 mm | - | - | - |
| 1777837454 | 22.22° C | 37% | 1001.1 hPa | 0 mm | - | - | - |
| 1777836554 | 22.22° C | 39% | 1001.2 hPa | 0 mm | - | - | - |
| 1777835624 | 21.67° C | 38% | 1001.6 hPa | 0 mm | - | - | - |
| 1777834694 | 21.11° C | 39% | 1001.8 hPa | 0 mm | - | - | - |
* Rain latest hour (hover to see other rain measurements)
** Current wind speed in m/s (hover to see current wind gust speed)